Time;durP1;ratioP1;P1;durP2;ratioP2;P2;SDS_P1;SDS_P2;PMS_P1;PMS_P2;Temp;Humidity;BMP_temperature;BMP_pressure;BME280_temperature;BME280_humidity;BME280_pressure;Samples;Min_cycle;Max_cycle;Signal;HPM_P1;HPM_P2
2023/10/22 00:02:16;;;;;;;4.90;4.55;;;;;;;;;;5057851;28;20393;-82
2023/10/22 00:04:43;;;;;;;5.07;4.68;;;;;;;;;;5058196;28;20859;-83
2023/10/22 00:07:09;;;;;;;5.25;4.85;;;;;;;;;;5061859;28;20481;-83
2023/10/22 00:09:35;;;;;;;5.20;4.90;;;;;;;;;;5059373;28;20380;-83
2023/10/22 00:12:02;;;;;;;5.60;5.10;;;;;;;;;;5058834;28;20447;-83
2023/10/22 00:14:28;;;;;;;5.10;4.70;;;;;;;;;;5059722;28;20468;-83
2023/10/22 00:16:54;;;;;;;5.70;5.28;;;;;;;;;;5060478;28;20413;-83
2023/10/22 00:19:20;;;;;;;5.85;5.45;;;;;;;;;;5056718;28;20392;-83
2023/10/22 00:21:46;;;;;;;6.38;5.97;;;;;;;;;;5058614;28;20394;-83
2023/10/22 00:24:12;;;;;;;6.40;5.90;;;;;;;;;;5059398;28;20377;-82
2023/10/22 00:26:39;;;;;;;6.57;6.07;;;;;;;;;;5059072;28;20407;-82
2023/10/22 00:29:05;;;;;;;7.00;6.50;;;;;;;;;;5059801;28;20385;-83
2023/10/22 00:31:31;;;;;;;6.35;5.90;;;;;;;;;;5059451;28;20393;-83
2023/10/22 00:33:57;;;;;;;5.97;5.57;;;;;;;;;;5058681;28;20385;-83
2023/10/22 00:36:26;;;;;;;7.25;6.75;;;;;;;;;;5060382;28;20385;-82
2023/10/22 00:38:52;;;;;;;7.37;6.63;;;;;;;;;;5062866;28;20396;-83
2023/10/22 00:41:18;;;;;;;7.22;6.72;;;;;;;;;;5064901;28;20410;-82
2023/10/22 00:43:44;;;;;;;6.55;6.10;;;;;;;;;;5063216;28;20396;-84
2023/10/22 00:46:20;;;;;;;7.07;6.57;;;;;;;;;;5063066;28;20393;-84
2023/10/22 00:48:47;;;;;;;6.73;6.23;;;;;;;;;;5067273;28;20389;-84
2023/10/22 00:51:14;;;;;;;7.90;7.30;;;;;;;;;;5067637;28;20381;-83
2023/10/22 00:53:41;;;;;;;7.25;6.57;;;;;;;;;;5066940;28;20390;-84
2023/10/22 00:56:07;;;;;;;6.85;6.35;;;;;;;;;;5067003;28;20392;-84
2023/10/22 00:58:34;;;;;;;7.70;7.10;;;;;;;;;;5066775;28;20787;-82
2023/10/22 01:01:03;;;;;;;7.57;6.97;;;;;;;;;;5066217;28;20405;-83
2023/10/22 01:03:29;;;;;;;7.47;6.88;;;;;;;;;;5067074;28;20606;-82
2023/10/22 01:05:56;;;;;;;7.73;7.13;;;;;;;;;;5065871;28;20853;-83
2023/10/22 01:08:22;;;;;;;7.43;6.93;;;;;;;;;;5066997;28;20386;-83
2023/10/22 01:10:49;;;;;;;7.78;7.28;;;;;;;;;;5067651;28;20424;-83
2023/10/22 01:13:15;;;;;;;7.38;6.88;;;;;;;;;;5064113;28;20453;-84
2023/10/22 01:15:41;;;;;;;7.38;6.88;;;;;;;;;;5066635;28;20385;-84
2023/10/22 01:18:08;;;;;;;7.68;7.07;;;;;;;;;;5068035;28;20424;-82
2023/10/22 01:20:34;;;;;;;7.85;7.25;;;;;;;;;;5070048;28;20409;-82
2023/10/22 01:23:03;;;;;;;7.18;6.68;;;;;;;;;;5069702;28;20831;-83
2023/10/22 01:25:29;;;;;;;7.70;7.20;;;;;;;;;;5066494;28;20396;-82
2023/10/22 01:27:58;;;;;;;7.35;6.85;;;;;;;;;;5064549;28;20385;-82
2023/10/22 01:30:24;;;;;;;7.65;7.05;;;;;;;;;;5070544;28;20381;-84
2023/10/22 01:32:50;;;;;;;13.13;11.93;;;;;;;;;;5052172;28;20389;-84
2023/10/22 01:35:16;;;;;;;11.30;10.32;;;;;;;;;;5068922;28;20401;-83
2023/10/22 01:37:43;;;;;;;9.33;8.53;;;;;;;;;;5070053;28;20389;-83
2023/10/22 01:40:09;;;;;;;11.80;10.80;;;;;;;;;;5068903;28;20413;-83
2023/10/22 01:42:35;;;;;;;15.23;13.73;;;;;;;;;;5069069;28;20411;-83
2023/10/22 01:45:01;;;;;;;13.45;12.25;;;;;;;;;;5068796;28;20413;-83
2023/10/22 01:47:27;;;;;;;15.23;13.73;;;;;;;;;;5067679;28;20393;-82
2023/10/22 01:49:53;;;;;;;14.13;12.82;;;;;;;;;;5052192;28;20780;-84
2023/10/22 01:52:19;;;;;;;12.95;11.85;;;;;;;;;;5064215;28;20381;-83
2023/10/22 01:54:45;;;;;;;16.40;14.90;;;;;;;;;;5064782;28;20988;-82
2023/10/22 01:57:11;;;;;;;17.58;15.90;;;;;;;;;;5056533;28;20384;-82
2023/10/22 01:59:38;;;;;;;18.75;16.75;;;;;;;;;;5055770;28;20386;-82
2023/10/22 02:02:04;;;;;;;16.33;14.82;;;;;;;;;;5056328;28;20388;-82
2023/10/22 02:04:31;;;;;;;12.75;11.65;;;;;;;;;;5055861;28;21836;-83
2023/10/22 02:06:57;;;;;;;12.38;11.38;;;;;;;;;;5056442;28;20754;-82
2023/10/22 02:09:23;;;;;;;9.27;8.57;;;;;;;;;;5056467;28;20878;-82
2023/10/22 02:11:50;;;;;;;9.68;8.88;;;;;;;;;;5056855;28;20495;-82
2023/10/22 02:14:16;;;;;;;9.73;8.98;;;;;;;;;;5057254;28;20389;-82
2023/10/22 02:16:42;;;;;;;9.00;8.30;;;;;;;;;;5038978;28;20397;-82
2023/10/22 02:19:08;;;;;;;9.20;8.50;;;;;;;;;;5057574;28;20391;-82
2023/10/22 02:21:35;;;;;;;9.43;8.45;;;;;;;;;;5057995;28;20417;-82
2023/10/22 02:24:01;;;;;;;9.30;8.60;;;;;;;;;;5056878;28;20849;-82
2023/10/22 02:26:27;;;;;;;9.30;8.60;;;;;;;;;;5058073;28;20424;-82
2023/10/22 02:28:53;;;;;;;8.27;7.68;;;;;;;;;;5061675;28;20373;-82
2023/10/22 02:31:19;;;;;;;8.43;7.82;;;;;;;;;;5074553;28;20413;-82
2023/10/22 02:33:45;;;;;;;8.85;8.07;;;;;;;;;;5074037;28;20385;-83
2023/10/22 02:36:11;;;;;;;8.13;7.53;;;;;;;;;;5074240;28;20382;-83
2023/10/22 02:38:37;;;;;;;8.43;7.82;;;;;;;;;;5070822;28;20366;-82
2023/10/22 02:41:03;;;;;;;9.20;8.50;;;;;;;;;;5072906;28;20416;-83
2023/10/22 02:43:30;;;;;;;12.35;11.27;;;;;;;;;;5072091;28;20386;-82
2023/10/22 02:45:56;;;;;;;13.23;12.05;;;;;;;;;;5071816;28;20386;-83
2023/10/22 02:48:23;;;;;;;11.57;10.57;;;;;;;;;;5071957;28;20989;-82
2023/10/22 02:50:49;;;;;;;8.27;7.47;;;;;;;;;;5071288;28;20388;-82
2023/10/22 02:53:16;;;;;;;7.20;6.70;;;;;;;;;;5069734;28;20400;-82
2023/10/22 02:55:42;;;;;;;7.45;6.85;;;;;;;;;;5069000;28;20388;-82
2023/10/22 02:58:09;;;;;;;7.22;6.72;;;;;;;;;;5069673;28;20399;-82
2023/10/22 03:00:35;;;;;;;7.18;6.57;;;;;;;;;;5069099;28;20405;-82
2023/10/22 03:03:01;;;;;;;7.33;6.73;;;;;;;;;;5069257;28;20904;-82
2023/10/22 03:05:31;;;;;;;6.85;6.35;;;;;;;;;;5070449;28;20393;-83
2023/10/22 03:07:57;;;;;;;5.90;5.50;;;;;;;;;;5070121;28;20463;-82
2023/10/22 03:10:23;;;;;;;6.50;6.00;;;;;;;;;;5069340;28;20392;-82
2023/10/22 03:12:49;;;;;;;6.70;6.25;;;;;;;;;;5069665;28;20392;-82
2023/10/22 03:15:15;;;;;;;5.80;5.40;;;;;;;;;;5051304;28;20385;-82
2023/10/22 03:17:41;;;;;;;6.13;5.72;;;;;;;;;;5069120;28;20404;-83
2023/10/22 03:20:09;;;;;;;5.60;5.20;;;;;;;;;;5069080;28;20409;-82
2023/10/22 03:22:35;;;;;;;5.40;5.00;;;;;;;;;;5068537;28;20469;-82
2023/10/22 03:25:01;;;;;;;5.20;4.90;;;;;;;;;;5067644;28;20386;-82
2023/10/22 03:27:27;;;;;;;5.65;5.25;;;;;;;;;;5068149;28;20428;-82
2023/10/22 03:29:53;;;;;;;5.50;5.10;;;;;;;;;;5068020;28;20388;-82
2023/10/22 03:32:19;;;;;;;4.93;4.63;;;;;;;;;;5067338;28;20373;-82
2023/10/22 03:34:45;;;;;;;4.70;4.40;;;;;;;;;;5066981;28;20392;-82
2023/10/22 03:37:12;;;;;;;5.25;4.85;;;;;;;;;;5067243;28;20385;-82
2023/10/22 03:39:38;;;;;;;4.30;4.00;;;;;;;;;;5066941;28;20721;-82
2023/10/22 03:42:04;;;;;;;4.73;4.43;;;;;;;;;;5066511;28;20381;-82
2023/10/22 03:44:30;;;;;;;4.57;4.28;;;;;;;;;;5067014;28;20389;-82
2023/10/22 03:46:56;;;;;;;5.10;4.80;;;;;;;;;;5060431;28;20389;-82
2023/10/22 03:49:22;;;;;;;5.22;4.78;;;;;;;;;;5066666;28;20407;-82
2023/10/22 03:51:48;;;;;;;4.68;4.38;;;;;;;;;;5067748;28;20390;-82
2023/10/22 03:54:14;;;;;;;4.50;4.20;;;;;;;;;;5067943;28;20408;-82
2023/10/22 03:56:40;;;;;;;7.30;4.43;;;;;;;;;;5067243;28;20377;-82
2023/10/22 03:59:06;;;;;;;4.32;4.03;;;;;;;;;;5066016;28;20389;-82
2023/10/22 04:01:32;;;;;;;4.60;4.30;;;;;;;;;;5064118;28;20459;-82
2023/10/22 04:03:58;;;;;;;4.50;4.20;;;;;;;;;;5065944;28;20893;-82
2023/10/22 04:06:24;;;;;;;4.37;4.07;;;;;;;;;;5066724;28;20409;-82
2023/10/22 04:08:50;;;;;;;4.90;4.60;;;;;;;;;;5066143;28;20381;-82
2023/10/22 04:11:19;;;;;;;4.03;3.83;;;;;;;;;;5066210;28;20438;-82
2023/10/22 04:13:45;;;;;;;3.80;3.60;;;;;;;;;;5065210;28;20449;-82
2023/10/22 04:16:18;;;;;;;4.53;4.23;;;;;;;;;;5065243;28;20466;-82
2023/10/22 04:18:44;;;;;;;4.47;4.18;;;;;;;;;;5064650;28;20743;-82
2023/10/22 04:21:16;;;;;;;4.80;4.50;;;;;;;;;;5065707;28;20425;-82
2023/10/22 04:23:42;;;;;;;4.45;4.15;;;;;;;;;;5064586;28;20862;-82
2023/10/22 04:26:15;;;;;;;4.22;3.92;;;;;;;;;;5064805;28;20381;-82
2023/10/22 04:28:45;;;;;;;3.83;3.63;;;;;;;;;;5049763;28;20412;-82
2023/10/22 04:31:11;;;;;;;3.90;3.70;;;;;;;;;;5064706;28;20385;-82
2023/10/22 04:33:37;;;;;;;3.40;3.20;;;;;;;;;;5064370;28;20450;-82
2023/10/22 04:36:03;;;;;;;8.60;3.50;;;;;;;;;;5060906;28;20377;-82
2023/10/22 04:38:30;;;;;;;3.83;3.53;;;;;;;;;;5064551;28;20385;-82
2023/10/22 04:40:56;;;;;;;4.03;3.78;;;;;;;;;;5063551;28;20417;-82
2023/10/22 04:43:22;;;;;;;3.83;3.63;;;;;;;;;;5046843;28;20867;-82
2023/10/22 04:45:48;;;;;;;4.50;4.20;;;;;;;;;;5065837;28;20415;-82
2023/10/22 04:48:14;;;;;;;4.65;4.35;;;;;;;;;;5066054;28;20413;-82
2023/10/22 04:50:44;;;;;;;6.35;5.30;;;;;;;;;;5066657;28;20378;-82
2023/10/22 04:53:11;;;;;;;6.40;6.00;;;;;;;;;;5066120;28;20381;-82
2023/10/22 04:55:37;;;;;;;6.45;6.03;;;;;;;;;;5064677;28;20858;-82
2023/10/22 04:58:03;;;;;;;6.25;5.75;;;;;;;;;;5067867;28;20377;-82
2023/10/22 05:00:29;;;;;;;5.07;4.78;;;;;;;;;;5067402;28;20882;-82
2023/10/22 05:02:55;;;;;;;6.25;4.88;;;;;;;;;;5071639;28;20377;-82
2023/10/22 05:05:21;;;;;;;4.80;4.50;;;;;;;;;;5064472;28;20457;-82
2023/10/22 05:07:49;;;;;;;4.53;4.23;;;;;;;;;;5063590;28;20377;-82
2023/10/22 05:10:15;;;;;;;3.80;3.60;;;;;;;;;;5075922;28;20381;-82
2023/10/22 05:12:41;;;;;;;4.05;3.85;;;;;;;;;;5071757;28;20452;-82
2023/10/22 05:15:08;;;;;;;4.20;3.90;;;;;;;;;;5068210;28;20389;-82
2023/10/22 05:17:34;;;;;;;4.07;3.78;;;;;;;;;;5069591;28;20381;-82
2023/10/22 05:20:00;;;;;;;3.60;3.40;;;;;;;;;;5070023;28;20449;-82
2023/10/22 05:22:26;;;;;;;3.70;3.50;;;;;;;;;;5069013;28;20762;-82
2023/10/22 05:24:52;;;;;;;3.80;3.55;;;;;;;;;;5068946;28;20381;-82
2023/10/22 05:27:18;;;;;;;4.53;4.13;;;;;;;;;;5068754;28;20385;-82
2023/10/22 05:29:46;;;;;;;6.63;6.03;;;;;;;;;;5068698;28;20397;-82
2023/10/22 05:32:14;;;;;;;8.30;7.60;;;;;;;;;;5068763;28;20382;-82
2023/10/22 05:34:40;;;;;;;10.43;9.52;;;;;;;;;;5069102;28;20389;-82
2023/10/22 05:37:07;;;;;;;10.52;9.63;;;;;;;;;;5068410;28;20390;-82
2023/10/22 05:39:33;;;;;;;10.52;9.63;;;;;;;;;;5055863;28;20395;-82
2023/10/22 05:41:59;;;;;;;10.13;9.23;;;;;;;;;;5065947;28;20393;-82
2023/10/22 05:44:25;;;;;;;10.00;9.20;;;;;;;;;;5059482;28;20401;-82
2023/10/22 05:46:51;;;;;;;8.80;8.10;;;;;;;;;;5065587;28;20396;-82
2023/10/22 05:49:17;;;;;;;10.30;9.50;;;;;;;;;;5063826;28;20857;-82
2023/10/22 05:51:43;;;;;;;8.82;8.13;;;;;;;;;;5065888;28;20385;-82
2023/10/22 05:54:10;;;;;;;7.13;6.53;;;;;;;;;;5069916;28;20453;-83
2023/10/22 05:56:36;;;;;;;7.38;6.78;;;;;;;;;;5064607;28;20396;-86
2023/10/22 05:59:08;;;;;;;6.38;5.88;;;;;;;;;;5063788;28;20386;-85
2023/10/22 06:01:38;;;;;;;7.15;6.55;;;;;;;;;;5063851;28;20424;-83
2023/10/22 06:04:04;;;;;;;8.30;7.57;;;;;;;;;;5065944;28;20401;-83
2023/10/22 06:06:30;;;;;;;9.43;8.43;;;;;;;;;;5067988;28;20480;-83
2023/10/22 06:08:56;;;;;;;10.27;9.27;;;;;;;;;;5064344;28;20378;-82
2023/10/22 06:11:22;;;;;;;6.72;6.15;;;;;;;;;;5064795;28;20393;-83
2023/10/22 06:13:48;;;;;;;6.50;6.00;;;;;;;;;;5062264;28;20772;-83
2023/10/22 06:16:14;;;;;;;7.40;5.55;;;;;;;;;;5060902;28;20405;-83
2023/10/22 06:18:40;;;;;;;9.82;8.90;;;;;;;;;;5059320;28;20438;-82
2023/10/22 06:21:13;;;;;;;11.63;10.63;;;;;;;;;;5059416;28;20409;-83
2023/10/22 06:23:39;;;;;;;12.80;11.60;;;;;;;;;;5059854;28;20393;-82
2023/10/22 06:26:05;;;;;;;11.50;10.60;;;;;;;;;;5062181;28;20381;-82
2023/10/22 06:28:31;;;;;;;12.80;11.65;;;;;;;;;;5062042;28;20414;-82
2023/10/22 06:31:05;;;;;;;10.98;10.02;;;;;;;;;;5059885;28;20385;-81
2023/10/22 06:33:31;;;;;;;10.73;9.93;;;;;;;;;;5060150;28;20397;-81
2023/10/22 06:35:57;;;;;;;11.00;10.10;;;;;;;;;;5061578;28;20389;-81
2023/10/22 06:38:23;;;;;;;11.25;10.15;;;;;;;;;;5061652;28;20377;-81
2023/10/22 06:40:49;;;;;;;11.13;10.23;;;;;;;;;;5060653;28;20439;-81
2023/10/22 06:43:15;;;;;;;10.98;10.07;;;;;;;;;;5061554;28;20389;-81
2023/10/22 06:45:41;;;;;;;11.27;10.38;;;;;;;;;;5061017;28;20938;-81
2023/10/22 06:48:07;;;;;;;12.90;8.30;;;;;;;;;;5064807;28;20430;-81
2023/10/22 06:50:33;;;;;;;8.90;8.20;;;;;;;;;;5057969;28;20434;-81
2023/10/22 06:52:59;;;;;;;9.20;8.40;;;;;;;;;;5065163;28;20389;-81
2023/10/22 06:55:26;;;;;;;8.10;7.50;;;;;;;;;;5059397;28;20407;-81
2023/10/22 06:57:52;;;;;;;8.23;7.63;;;;;;;;;;5064703;28;20381;-81
2023/10/22 07:00:18;;;;;;;7.47;6.97;;;;;;;;;;5060802;28;20409;-81
2023/10/22 07:02:46;;;;;;;8.23;7.63;;;;;;;;;;5063510;28;20382;-82
2023/10/22 07:05:11;;;;;;;7.82;7.25;;;;;;;;;;5067453;28;20374;-82
2023/10/22 07:07:44;;;;;;;8.35;7.55;;;;;;;;;;5066429;28;20390;-82
2023/10/22 07:10:10;;;;;;;8.70;7.80;;;;;;;;;;5066602;28;20407;-82
2023/10/22 07:12:36;;;;;;;7.80;7.20;;;;;;;;;;5062837;28;20531;-82
2023/10/22 07:15:02;;;;;;;8.20;7.50;;;;;;;;;;5064852;28;20835;-81
2023/10/22 07:17:28;;;;;;;9.70;8.90;;;;;;;;;;5066056;28;20393;-81
2023/10/22 07:19:54;;;;;;;8.55;7.88;;;;;;;;;;5052890;28;20419;-81
2023/10/22 07:22:20;;;;;;;8.07;7.45;;;;;;;;;;5064189;28;20389;-82
2023/10/22 07:24:49;;;;;;;10.10;9.30;;;;;;;;;;5062666;28;20483;-81
2023/10/22 07:27:15;;;;;;;9.10;8.40;;;;;;;;;;5055727;28;20910;-81
2023/10/22 07:29:41;;;;;;;7.67;7.07;;;;;;;;;;5066302;28;20400;-82
2023/10/22 07:32:07;;;;;;;7.90;7.30;;;;;;;;;;5066675;28;20432;-81
2023/10/22 07:34:33;;;;;;;8.18;7.55;;;;;;;;;;5063837;28;20377;-81
2023/10/22 07:36:59;;;;;;;10.73;9.82;;;;;;;;;;5064079;28;20460;-82
2023/10/22 07:39:26;;;;;;;13.00;11.85;;;;;;;;;;5064425;28;20468;-82
2023/10/22 07:41:52;;;;;;;13.10;11.80;;;;;;;;;;5059210;28;20444;-82
2023/10/22 07:44:18;;;;;;;12.07;11.07;;;;;;;;;;5058516;28;20381;-81
2023/10/22 07:46:44;;;;;;;14.80;13.38;;;;;;;;;;5057859;28;20693;-82
2023/10/22 07:49:11;;;;;;;12.77;11.68;;;;;;;;;;5059737;28;20443;-82
2023/10/22 07:51:37;;;;;;;12.35;11.25;;;;;;;;;;5054814;28;20477;-82
2023/10/22 07:54:03;;;;;;;13.00;11.77;;;;;;;;;;5052437;28;20794;-82
2023/10/22 07:56:29;;;;;;;14.32;12.93;;;;;;;;;;5044964;28;20393;-82
2023/10/22 07:58:55;;;;;;;14.40;13.05;;;;;;;;;;5064299;28;20457;-82
2023/10/22 08:01:23;;;;;;;14.57;13.07;;;;;;;;;;5063432;28;20425;-82
2023/10/22 08:03:50;;;;;;;13.27;12.07;;;;;;;;;;5061353;28;20401;-81
2023/10/22 08:06:16;;;;;;;17.27;15.47;;;;;;;;;;5055169;28;20472;-82
2023/10/22 08:08:42;;;;;;;17.88;15.95;;;;;;;;;;5062921;28;20393;-81
2023/10/22 08:11:09;;;;;;;17.70;15.38;;;;;;;;;;5062285;28;20389;-82
2023/10/22 08:13:35;;;;;;;18.85;16.63;;;;;;;;;;5062642;28;20448;-81
2023/10/22 08:16:05;;;;;;;19.40;17.40;;;;;;;;;;5046643;28;20397;-81
2023/10/22 08:18:31;;;;;;;22.60;18.60;;;;;;;;;;5062559;28;20420;-82
2023/10/22 08:21:03;;;;;;;26.60;20.50;;;;;;;;;;5054430;28;20514;-80
2023/10/22 08:23:30;;;;;;;27.77;21.83;;;;;;;;;;5053493;28;20399;-79
2023/10/22 08:25:57;;;;;;;33.22;24.13;;;;;;;;;;5053496;28;20381;-80
2023/10/22 08:28:23;;;;;;;38.90;26.52;;;;;;;;;;5053754;28;20851;-79
2023/10/22 08:30:50;;;;;;;35.55;25.23;;;;;;;;;;5053949;28;20473;-79
2023/10/22 08:33:16;;;;;;;35.65;24.98;;;;;;;;;;5054128;28;20473;-79
2023/10/22 08:35:42;;;;;;;41.53;28.02;;;;;;;;;;5054508;28;20386;-79
2023/10/22 08:38:08;;;;;;;38.05;26.45;;;;;;;;;;5054403;28;20396;-79
2023/10/22 08:40:38;;;;;;;30.88;21.00;;;;;;;;;;5054624;28;20490;-80
2023/10/22 08:43:10;;;;;;;29.77;21.80;;;;;;;;;;5036736;28;20393;-80
2023/10/22 08:45:36;;;;;;;20.70;16.42;;;;;;;;;;5054774;28;20447;-80
2023/10/22 08:48:06;;;;;;;26.83;21.77;;;;;;;;;;5054037;28;20393;-80
2023/10/22 08:50:33;;;;;;;22.33;16.77;;;;;;;;;;5052454;28;20389;-81
2023/10/22 08:52:59;;;;;;;21.05;16.23;;;;;;;;;;5053061;28;20862;-80
2023/10/22 08:55:26;;;;;;;17.83;14.68;;;;;;;;;;5052922;28;20397;-80
2023/10/22 08:57:52;;;;;;;20.77;16.05;;;;;;;;;;5053632;28;20387;-81
2023/10/22 09:00:18;;;;;;;17.92;15.52;;;;;;;;;;5036837;28;20439;-80
2023/10/22 09:02:44;;;;;;;18.35;14.95;;;;;;;;;;5054272;28;20389;-79
2023/10/22 09:05:11;;;;;;;13.00;11.60;;;;;;;;;;5053667;28;20850;-80
2023/10/22 09:07:50;;;;;;;14.80;13.30;;;;;;;;;;5053486;28;20399;-81
2023/10/22 09:10:30;;;;;;;13.43;12.03;;;;;;;;;;5053377;28;20385;-79
2023/10/22 09:13:15;;;;;;;8.88;8.02;;;;;;;;;;5053518;28;20393;-79
2023/10/22 09:15:45;;;;;;;5.72;5.22;;;;;;;;;;5053757;28;20401;-80
2023/10/22 09:18:11;;;;;;;5.28;4.85;;;;;;;;;;5052869;28;20390;-81
2023/10/22 09:20:38;;;;;;;5.47;4.00;;;;;;;;;;5045823;28;20874;-81
2023/10/22 09:23:20;;;;;;;6.15;5.65;;;;;;;;;;5052194;28;20447;-80
2023/10/22 09:25:50;;;;;;;4.45;4.10;;;;;;;;;;5042877;28;20889;-80
2023/10/22 09:28:22;;;;;;;7.28;6.68;;;;;;;;;;5052275;28;20847;-80
2023/10/22 09:30:55;;;;;;;6.53;6.03;;;;;;;;;;5052356;28;20391;-80
2023/10/22 09:33:30;;;;;;;2.97;2.60;;;;;;;;;;5052131;28;20451;-80
2023/10/22 09:36:01;;;;;;;2.95;2.75;;;;;;;;;;5042906;28;20397;-80
2023/10/22 09:38:46;;;;;;;5.63;4.80;;;;;;;;;;5052294;28;20424;-82
2023/10/22 09:41:28;;;;;;;2.80;2.30;;;;;;;;;;5046493;28;20412;-81
2023/10/22 09:43:55;;;;;;;2.67;2.40;;;;;;;;;;5067245;28;20490;-81
2023/10/22 09:46:21;;;;;;;2.70;2.13;;;;;;;;;;5045357;28;20385;-81
2023/10/22 09:48:48;;;;;;;3.50;2.83;;;;;;;;;;5058044;28;20421;-81
2023/10/22 09:51:15;;;;;;;5.28;4.78;;;;;;;;;;5048281;28;20393;-81
2023/10/22 09:53:52;;;;;;;3.50;3.20;;;;;;;;;;5058144;28;20406;-81
2023/10/22 09:56:21;;;;;;;3.03;2.70;;;;;;;;;;5057604;28;20893;-82
2023/10/22 09:58:48;;;;;;;3.65;2.65;;;;;;;;;;5059565;28;20377;-79
2023/10/22 10:01:14;;;;;;;3.17;2.90;;;;;;;;;;5057569;28;20847;-79
2023/10/22 10:03:41;;;;;;;4.20;2.90;;;;;;;;;;5057070;28;20403;-81
2023/10/22 10:06:08;;;;;;;3.75;3.45;;;;;;;;;;5056105;28;20461;-81
2023/10/22 10:08:38;;;;;;;2.90;2.60;;;;;;;;;;5056148;28;20382;-80
2023/10/22 10:11:05;;;;;;;1.83;1.20;;;;;;;;;;5055659;28;20396;-80
2023/10/22 10:13:31;;;;;;;1.48;0.98;;;;;;;;;;5057476;28;20397;-81
2023/10/22 10:15:59;;;;;;;2.30;0.98;;;;;;;;;;5057619;28;20377;-82
2023/10/22 10:18:49;;;;;;;1.52;0.90;;;;;;;;;;5058250;28;20381;-80
2023/10/22 10:21:33;;;;;;;1.50;0.80;;;;;;;;;;5045833;28;20421;-81
2023/10/22 10:24:28;;;;;;;2.40;1.10;;;;;;;;;;5059575;28;20393;-79
2023/10/22 10:26:57;;;;;;;1.45;0.88;;;;;;;;;;5029260;28;20462;-80
2023/10/22 10:29:24;;;;;;;4.13;0.90;;;;;;;;;;5056488;28;20378;-79
2023/10/22 10:31:51;;;;;;;2.22;0.75;;;;;;;;;;5038112;28;20413;-80
2023/10/22 10:34:39;;;;;;;1.60;0.68;;;;;;;;;;5057165;28;20973;-80
2023/10/22 10:37:12;;;;;;;2.10;0.82;;;;;;;;;;5052530;28;20393;-80
2023/10/22 10:39:42;;;;;;;2.53;0.70;;;;;;;;;;5034790;28;20387;-81
2023/10/22 10:42:09;;;;;;;2.03;0.70;;;;;;;;;;5054494;28;20416;-79
2023/10/22 10:44:54;;;;;;;2.20;0.87;;;;;;;;;;5056955;28;20420;-82
2023/10/22 10:47:27;;;;;;;1.48;0.63;;;;;;;;;;5055924;28;20463;-80
2023/10/22 10:50:03;;;;;;;1.67;0.77;;;;;;;;;;5040350;28;20394;-80
2023/10/22 10:52:40;;;;;;;2.38;0.80;;;;;;;;;;5060204;28;20513;-79
2023/10/22 10:55:09;;;;;;;1.90;0.90;;;;;;;;;;5056894;28;20400;-78
2023/10/22 10:57:36;;;;;;;1.97;0.60;;;;;;;;;;5050401;28;20397;-79
2023/10/22 11:00:04;;;;;;;1.52;0.50;;;;;;;;;;5052455;28;20496;-78
2023/10/22 11:02:31;;;;;;;2.67;0.80;;;;;;;;;;5052923;28;20473;-79
2023/10/22 11:04:57;;;;;;;2.03;1.00;;;;;;;;;;5055237;28;20374;-79
2023/10/22 11:07:23;;;;;;;1.67;0.60;;;;;;;;;;5055852;28;20393;-79
2023/10/22 11:09:49;;;;;;;2.40;0.80;;;;;;;;;;5053873;28;20433;-80
2023/10/22 11:12:15;;;;;;;1.88;0.77;;;;;;;;;;5055330;28;20413;-79
2023/10/22 11:14:41;;;;;;;1.30;0.60;;;;;;;;;;5055391;28;20396;-79
2023/10/22 11:17:08;;;;;;;1.77;0.50;;;;;;;;;;5053372;28;20396;-79
2023/10/22 11:19:34;;;;;;;0.98;0.52;;;;;;;;;;5055405;28;20464;-79
2023/10/22 11:22:01;;;;;;;1.50;0.60;;;;;;;;;;5055454;28;20452;-79
2023/10/22 11:24:30;;;;;;;2.63;0.65;;;;;;;;;;5055832;28;20435;-79
2023/10/22 11:26:57;;;;;;;1.53;0.60;;;;;;;;;;5055263;28;20745;-79
2023/10/22 11:29:23;;;;;;;2.17;0.80;;;;;;;;;;5055790;28;20471;-79
2023/10/22 11:31:59;;;;;;;1.60;0.70;;;;;;;;;;5061815;28;20719;-78
2023/10/22 11:34:28;;;;;;;1.88;0.60;;;;;;;;;;5051162;28;20382;-78
2023/10/22 11:37:00;;;;;;;1.48;0.80;;;;;;;;;;5054114;28;20462;-79
2023/10/22 11:39:34;;;;;;;2.40;0.90;;;;;;;;;;5044609;28;20389;-79
2023/10/22 11:42:01;;;;;;;2.88;0.55;;;;;;;;;;5053403;28;20444;-79
2023/10/22 11:44:34;;;;;;;2.60;0.60;;;;;;;;;;5053412;28;20851;-78
2023/10/22 11:47:00;;;;;;;1.90;0.45;;;;;;;;;;5053471;28;20408;-79
2023/10/22 11:49:27;;;;;;;1.95;0.60;;;;;;;;;;5054221;28;20386;-80
2023/10/22 11:51:53;;;;;;;3.20;0.50;;;;;;;;;;5053536;28;20882;-79
2023/10/22 11:54:58;;;;;;;1.40;0.50;;;;;;;;;;5052852;28;20385;-79
2023/10/22 11:57:24;;;;;;;2.22;0.50;;;;;;;;;;4953498;29;20496;-80
2023/10/22 11:59:50;;;;;;;1.03;0.50;;;;;;;;;;4954162;29;20907;-79
2023/10/22 12:02:16;;;;;;;3.03;0.70;;;;;;;;;;4954233;28;20413;-80
2023/10/22 12:04:42;;;;;;;1.95;0.65;;;;;;;;;;4954022;29;20385;-79
2023/10/22 12:07:08;;;;;;;1.70;0.50;;;;;;;;;;4954250;29;20409;-79
2023/10/22 12:09:34;;;;;;;1.47;0.60;;;;;;;;;;4954282;29;20733;-79
2023/10/22 12:12:00;;;;;;;1.30;0.60;;;;;;;;;;4954231;29;20469;-79
2023/10/22 12:14:26;;;;;;;1.38;0.60;;;;;;;;;;4954458;29;20448;-80
2023/10/22 12:16:52;;;;;;;1.60;0.60;;;;;;;;;;4954284;29;20872;-80
2023/10/22 12:19:18;;;;;;;1.23;0.50;;;;;;;;;;4954482;29;20412;-79
2023/10/22 12:21:44;;;;;;;2.65;0.70;;;;;;;;;;4954761;29;20437;-79
2023/10/22 12:24:10;;;;;;;1.63;0.50;;;;;;;;;;4951613;29;20390;-79
2023/10/22 12:26:36;;;;;;;1.15;0.60;;;;;;;;;;4954976;28;20423;-79
2023/10/22 12:29:02;;;;;;;1.53;0.50;;;;;;;;;;5041186;28;20465;-79
2023/10/22 12:31:28;;;;;;;1.17;0.50;;;;;;;;;;5054732;28;20420;-79
2023/10/22 12:33:54;;;;;;;3.63;2.08;;;;;;;;;;5055022;28;20739;-79
2023/10/22 12:36:20;;;;;;;1.73;0.95;;;;;;;;;;5054843;28;20382;-80
2023/10/22 12:38:45;;;;;;;1.17;0.50;;;;;;;;;;5055035;28;20400;-80
2023/10/22 12:41:11;;;;;;;2.25;0.70;;;;;;;;;;5054885;28;20405;-80
2023/10/22 12:43:37;;;;;;;2.30;0.70;;;;;;;;;;5053874;28;20798;-80
2023/10/22 12:46:04;;;;;;;1.75;0.70;;;;;;;;;;5053751;28;20452;-80
2023/10/22 12:48:30;;;;;;;1.20;0.85;;;;;;;;;;5054300;28;20369;-79
2023/10/22 12:50:56;;;;;;;1.63;0.73;;;;;;;;;;5054448;28;20743;-79
2023/10/22 12:53:22;;;;;;;1.50;0.50;;;;;;;;;;5054005;28;20412;-80
2023/10/22 12:55:52;;;;;;;1.10;0.47;;;;;;;;;;5053981;28;20431;-80
2023/10/22 12:58:18;;;;;;;2.10;0.50;;;;;;;;;;5054166;28;20381;-79
2023/10/22 13:00:45;;;;;;;0.80;0.30;;;;;;;;;;5054464;28;20454;-79
2023/10/22 13:03:11;;;;;;;1.50;0.60;;;;;;;;;;5054471;28;20389;-79
2023/10/22 13:05:37;;;;;;;1.58;0.40;;;;;;;;;;5055143;28;20480;-79
2023/10/22 13:08:04;;;;;;;1.40;0.50;;;;;;;;;;5054174;28;20385;-80
2023/10/22 13:10:33;;;;;;;1.40;0.50;;;;;;;;;;5053761;28;20411;-80
2023/10/22 13:13:03;;;;;;;1.50;0.50;;;;;;;;;;5053509;28;21526;-79
2023/10/22 13:15:29;;;;;;;3.40;0.60;;;;;;;;;;5057393;28;20381;-80
2023/10/22 13:17:55;;;;;;;1.17;0.60;;;;;;;;;;5057052;28;20420;-79
2023/10/22 13:20:22;;;;;;;1.00;0.40;;;;;;;;;;5057365;28;20413;-79
2023/10/22 13:22:48;;;;;;;1.70;0.60;;;;;;;;;;5057492;28;20424;-79
2023/10/22 13:25:14;;;;;;;1.10;0.50;;;;;;;;;;5057890;28;20813;-79
2023/10/22 13:27:40;;;;;;;1.13;0.40;;;;;;;;;;5058060;28;20389;-80
2023/10/22 13:30:07;;;;;;;1.13;0.50;;;;;;;;;;5057918;28;20446;-79
2023/10/22 13:32:33;;;;;;;1.60;0.70;;;;;;;;;;5057967;28;20381;-80
2023/10/22 13:34:59;;;;;;;1.95;0.60;;;;;;;;;;5058591;28;20859;-80
2023/10/22 13:37:25;;;;;;;1.27;0.50;;;;;;;;;;5058463;28;20392;-79
2023/10/22 13:39:52;;;;;;;0.98;0.40;;;;;;;;;;5056810;28;20482;-80
2023/10/22 13:42:18;;;;;;;1.15;0.47;;;;;;;;;;5057716;28;20392;-80
2023/10/22 13:44:45;;;;;;;1.50;0.50;;;;;;;;;;5058047;28;20461;-80
2023/10/22 13:47:11;;;;;;;1.33;0.57;;;;;;;;;;5057559;28;20386;-80
2023/10/22 13:49:37;;;;;;;1.90;0.50;;;;;;;;;;5057992;28;20854;-80
2023/10/22 13:52:04;;;;;;;0.75;0.40;;;;;;;;;;5056490;28;20392;-81
2023/10/22 13:54:30;;;;;;;1.00;0.60;;;;;;;;;;5057283;28;20487;-80
2023/10/22 13:56:56;;;;;;;1.10;0.70;;;;;;;;;;5057121;28;20465;-79
2023/10/22 13:59:22;;;;;;;1.20;0.68;;;;;;;;;;5057177;28;20393;-78
2023/10/22 14:01:48;;;;;;;2.28;0.63;;;;;;;;;;5055458;28;20416;-80
2023/10/22 14:04:14;;;;;;;1.35;0.60;;;;;;;;;;5056682;28;20735;-78
2023/10/22 14:06:40;;;;;;;1.73;0.60;;;;;;;;;;5056921;28;20393;-79
2023/10/22 14:09:06;;;;;;;1.70;0.45;;;;;;;;;;5056103;28;20472;-79
2023/10/22 14:11:32;;;;;;;1.45;0.63;;;;;;;;;;5056309;28;20385;-79
2023/10/22 14:13:58;;;;;;;0.83;0.40;;;;;;;;;;5055467;28;20787;-79
2023/10/22 14:16:24;;;;;;;0.55;0.40;;;;;;;;;;5056237;28;20465;-79
2023/10/22 14:18:50;;;;;;;1.10;0.50;;;;;;;;;;5057148;28;20417;-79
2023/10/22 14:21:18;;;;;;;0.88;0.50;;;;;;;;;;5056910;28;20455;-79
2023/10/22 14:23:44;;;;;;;0.98;0.60;;;;;;;;;;5056956;28;20389;-79
2023/10/22 14:26:10;;;;;;;2.55;0.50;;;;;;;;;;5056810;28;20389;-79
2023/10/22 14:28:36;;;;;;;0.80;0.50;;;;;;;;;;5056197;28;20374;-80
2023/10/22 14:31:06;;;;;;;1.25;0.50;;;;;;;;;;5056439;28;20407;-79
2023/10/22 14:33:32;;;;;;;3.95;0.77;;;;;;;;;;5055401;28;20397;-78
2023/10/22 14:36:02;;;;;;;1.55;0.70;;;;;;;;;;5053426;28;20445;-78
2023/10/22 14:38:28;;;;;;;1.53;0.50;;;;;;;;;;5056065;28;20467;-79
2023/10/22 14:40:55;;;;;;;0.90;0.50;;;;;;;;;;5055721;28;20405;-79